Time;durP1;ratioP1;P1;durP2;ratioP2;P2;SDS_P1;SDS_P2;PMS_P1;PMS_P2;Temp;Humidity;BMP_temperature;BMP_pressure;BME280_temperature;BME280_humidity;BME280_pressure;Samples;Min_cycle;Max_cycle;Signal;HPM_P1;HPM_P2
2024/02/29 00:01:02;;;;;;;10.27;8.15;;;7.10;99.90;;;;;;5039945;28;20025;-36
2024/02/29 00:03:28;;;;;;;11.13;8.13;;;7.10;99.90;;;;;;5039235;28;20033;-35
2024/02/29 00:05:54;;;;;;;10.05;8.15;;;7.10;99.90;;;;;;5039062;28;20021;-32
2024/02/29 00:08:19;;;;;;;9.98;7.70;;;7.10;99.90;;;;;;5038285;28;20132;-33
2024/02/29 00:10:45;;;;;;;11.05;8.52;;;7.10;99.90;;;;;;5039723;28;20054;-30
2024/02/29 00:13:20;;;;;;;13.55;10.10;;;7.10;99.90;;;;;;5038827;28;20059;-32
2024/02/29 00:15:45;;;;;;;10.65;8.48;;;7.10;99.90;;;;;;5039663;28;20746;-34
2024/02/29 00:18:11;;;;;;;10.73;8.07;;;7.10;99.90;;;;;;5039378;28;20033;-32
2024/02/29 00:20:36;;;;;;;10.50;7.35;;;7.10;99.90;;;;;;5038823;28;20110;-34
2024/02/29 00:23:02;;;;;;;8.77;7.40;;;7.10;99.90;;;;;;5039121;28;20652;-34
2024/02/29 00:25:28;;;;;;;9.18;6.38;;;7.10;99.90;;;;;;5038304;28;20044;-36
2024/02/29 00:27:53;;;;;;;11.02;6.90;;;7.20;99.90;;;;;;5039528;28;20742;-33
2024/02/29 00:30:19;;;;;;;7.88;6.47;;;7.20;99.90;;;;;;5042812;28;20044;-32
2024/02/29 00:32:46;;;;;;;10.55;7.63;;;7.20;99.90;;;;;;5041999;28;20032;-33
2024/02/29 00:35:11;;;;;;;10.48;6.50;;;7.30;99.90;;;;;;5041967;28;20036;-36
2024/02/29 00:37:37;;;;;;;10.77;7.68;;;7.30;99.90;;;;;;5042791;28;20037;-34
2024/02/29 00:40:03;;;;;;;9.82;7.68;;;7.30;99.90;;;;;;5042221;28;20028;-32
2024/02/29 00:42:28;;;;;;;10.40;8.05;;;7.30;99.90;;;;;;5043330;28;20460;-34
2024/02/29 00:44:54;;;;;;;9.90;7.30;;;7.40;99.90;;;;;;5043345;28;20106;-33
2024/02/29 00:47:20;;;;;;;10.43;7.10;;;7.40;99.90;;;;;;5041756;28;20024;-35
2024/02/29 00:49:45;;;;;;;9.00;6.22;;;7.40;99.90;;;;;;5042705;28;20455;-33
2024/02/29 00:52:11;;;;;;;9.82;7.53;;;7.40;99.90;;;;;;5042871;28;20130;-36
2024/02/29 00:54:36;;;;;;;9.35;7.30;;;7.50;99.90;;;;;;5042117;28;20128;-35
2024/02/29 00:57:02;;;;;;;9.18;7.00;;;7.50;99.90;;;;;;5042589;28;20036;-33
2024/02/29 00:59:31;;;;;;;8.80;6.35;;;7.50;99.90;;;;;;5042591;28;20025;-35
2024/02/29 01:01:56;;;;;;;11.07;6.85;;;7.50;99.90;;;;;;5041995;28;20056;-34
2024/02/29 01:04:22;;;;;;;8.50;6.18;;;7.50;99.90;;;;;;5042386;28;20109;-35
2024/02/29 01:06:47;;;;;;;7.68;6.32;;;7.50;99.90;;;;;;5042784;28;20055;-33
2024/02/29 01:09:13;;;;;;;10.23;6.72;;;7.50;99.90;;;;;;5040839;28;20025;-36
2024/02/29 01:11:39;;;;;;;8.18;5.60;;;7.60;99.90;;;;;;5042162;28;20032;-34
2024/02/29 01:14:04;;;;;;;7.70;5.95;;;7.60;99.90;;;;;;5040937;28;20080;-32
2024/02/29 01:16:30;;;;;;;7.28;6.03;;;7.60;99.90;;;;;;5041044;28;20082;-33
2024/02/29 01:18:57;;;;;;;9.77;6.53;;;7.60;99.90;;;;;;5041520;28;20044;-32
2024/02/29 01:21:22;;;;;;;6.72;5.40;;;7.60;99.90;;;;;;5041232;28;20033;-32
2024/02/29 01:23:48;;;;;;;6.40;5.47;;;7.60;99.90;;;;;;5040549;28;20028;-34
2024/02/29 01:26:13;;;;;;;7.85;5.35;;;7.60;99.90;;;;;;5041534;28;20036;-33
2024/02/29 01:28:39;;;;;;;6.93;5.35;;;7.70;99.90;;;;;;5041338;28;20021;-35
2024/02/29 01:31:05;;;;;;;6.57;5.15;;;7.70;99.90;;;;;;5040785;28;20029;-35
2024/02/29 01:33:31;;;;;;;7.90;5.63;;;7.70;99.90;;;;;;5040677;28;20041;-34
2024/02/29 01:35:56;;;;;;;9.13;6.20;;;7.70;99.90;;;;;;5041727;28;20035;-34
2024/02/29 01:38:22;;;;;;;7.07;5.38;;;7.70;99.90;;;;;;5040237;28;20078;-35
2024/02/29 01:40:48;;;;;;;7.72;5.50;;;7.70;99.90;;;;;;5040448;28;20063;-35
2024/02/29 01:43:13;;;;;;;9.48;5.63;;;7.70;99.90;;;;;;5040509;28;20028;-30
2024/02/29 01:45:39;;;;;;;7.80;5.47;;;7.70;99.90;;;;;;5040320;28;20112;-34
2024/02/29 01:48:09;;;;;;;6.15;4.80;;;7.70;99.90;;;;;;5040933;28;20021;-35
2024/02/29 01:50:36;;;;;;;10.32;6.28;;;7.70;99.90;;;;;;5040187;28;20132;-31
2024/02/29 01:53:02;;;;;;;8.65;6.20;;;7.70;99.90;;;;;;5040949;28;20131;-33
2024/02/29 01:55:28;;;;;;;9.05;5.30;;;7.80;99.90;;;;;;5039751;28;20852;-35
2024/02/29 01:57:53;;;;;;;9.45;6.70;;;7.70;99.90;;;;;;5040147;28;20332;-33
2024/02/29 02:00:19;;;;;;;7.75;6.18;;;7.70;99.90;;;;;;5039985;28;20025;-34
2024/02/29 02:02:45;;;;;;;8.82;6.40;;;7.70;99.90;;;;;;5040939;28;20159;-35
2024/02/29 02:05:11;;;;;;;10.60;6.85;;;7.70;99.90;;;;;;5040128;28;20025;-34
2024/02/29 02:07:41;;;;;;;11.18;7.88;;;7.70;99.90;;;;;;5040342;28;20467;-35
2024/02/29 02:10:10;;;;;;;8.93;7.10;;;7.70;99.90;;;;;;5040660;28;20735;-37
2024/02/29 02:12:36;;;;;;;8.10;6.32;;;7.70;99.90;;;;;;5040319;28;20535;-32
2024/02/29 02:15:04;;;;;;;8.20;6.35;;;7.70;99.90;;;;;;5041206;28;20032;-34
2024/02/29 02:17:32;;;;;;;11.48;7.75;;;7.70;99.90;;;;;;5040392;28;20025;-35
2024/02/29 02:20:01;;;;;;;10.75;7.30;;;7.80;99.90;;;;;;5040216;28;20036;-32
2024/02/29 02:22:30;;;;;;;7.13;6.10;;;7.70;99.90;;;;;;5039675;28;20029;-33
2024/02/29 02:24:55;;;;;;;9.38;7.00;;;7.80;99.90;;;;;;5040535;28;20033;-33
2024/02/29 02:27:21;;;;;;;9.52;6.90;;;7.70;99.90;;;;;;5039665;28;20497;-36
2024/02/29 02:29:50;;;;;;;11.50;8.30;;;7.70;99.90;;;;;;5039940;28;20463;-34
2024/02/29 02:32:15;;;;;;;10.93;7.70;;;7.70;99.90;;;;;;5039894;28;20064;-35
2024/02/29 02:34:41;;;;;;;9.35;7.10;;;7.70;99.90;;;;;;5039914;28;20128;-36
2024/02/29 02:37:06;;;;;;;10.70;7.50;;;7.70;99.90;;;;;;5039869;28;20523;-37
2024/02/29 02:39:32;;;;;;;12.20;8.02;;;7.70;99.90;;;;;;5040044;28;20044;-36
2024/02/29 02:41:58;;;;;;;11.40;8.73;;;7.80;99.90;;;;;;5040856;28;20032;-35
2024/02/29 02:44:27;;;;;;;10.77;7.80;;;7.70;99.90;;;;;;5039894;28;20698;-37
2024/02/29 02:46:52;;;;;;;9.38;6.53;;;7.70;99.90;;;;;;5039121;28;20021;-37
2024/02/29 02:49:18;;;;;;;10.23;7.38;;;7.70;99.90;;;;;;5040468;28;20021;-37
2024/02/29 02:51:44;;;;;;;12.52;8.02;;;7.70;99.90;;;;;;5039150;28;20643;-36
2024/02/29 02:54:09;;;;;;;11.20;7.15;;;7.70;99.90;;;;;;5039415;28;20036;-35
2024/02/29 02:56:35;;;;;;;10.43;7.22;;;7.70;99.90;;;;;;5039997;28;20032;-35
2024/02/29 02:59:00;;;;;;;12.90;8.27;;;7.70;99.90;;;;;;5039843;28;20032;-32
2024/02/29 03:01:29;;;;;;;12.35;8.25;;;7.80;99.90;;;;;;5038299;28;20033;-31
2024/02/29 03:03:55;;;;;;;13.50;8.40;;;7.70;99.90;;;;;;5040092;28;20116;-32
2024/02/29 03:06:20;;;;;;;13.43;9.05;;;7.70;99.90;;;;;;5038445;28;20013;-32
2024/02/29 03:08:46;;;;;;;12.23;8.10;;;7.70;99.90;;;;;;5038837;28;20029;-30
2024/02/29 03:11:11;;;;;;;13.10;8.43;;;7.70;99.90;;;;;;5039334;28;20102;-36
2024/02/29 03:13:38;;;;;;;11.00;7.40;;;7.70;99.90;;;;;;5038834;28;20555;-34
2024/02/29 03:16:04;;;;;;;10.43;6.72;;;7.70;99.90;;;;;;5038682;28;20128;-35
2024/02/29 03:18:29;;;;;;;10.52;7.20;;;7.80;99.90;;;;;;5039804;28;20025;-30
2024/02/29 03:20:55;;;;;;;11.10;8.02;;;7.80;99.90;;;;;;5040337;28;20033;-29
2024/02/29 03:23:20;;;;;;;11.90;7.50;;;7.70;99.90;;;;;;5038803;28;20083;-33
2024/02/29 03:25:46;;;;;;;11.60;7.72;;;7.70;99.90;;;;;;5040604;28;20021;-36
2024/02/29 03:28:12;;;;;;;9.27;6.38;;;7.70;99.90;;;;;;5039459;28;20361;-34
2024/02/29 03:30:37;;;;;;;10.95;7.45;;;7.70;99.90;;;;;;5039010;28;20033;-34
2024/02/29 03:33:03;;;;;;;9.80;7.07;;;7.80;99.90;;;;;;5039098;28;20029;-35
2024/02/29 03:35:29;;;;;;;10.63;6.88;;;7.70;99.90;;;;;;5038639;28;20040;-34
2024/02/29 03:37:54;;;;;;;12.18;7.35;;;7.80;99.90;;;;;;5039431;28;20043;-37
2024/02/29 03:40:20;;;;;;;12.80;8.18;;;7.80;99.90;;;;;;5038954;28;20140;-37
2024/02/29 03:42:45;;;;;;;9.77;7.43;;;7.70;99.90;;;;;;5038741;28;20104;-31
2024/02/29 03:45:11;;;;;;;10.73;7.50;;;7.70;99.90;;;;;;5039876;28;20120;-33
2024/02/29 03:47:36;;;;;;;9.95;7.03;;;7.80;99.90;;;;;;5038306;28;20468;-36
2024/02/29 03:50:02;;;;;;;13.85;8.23;;;7.80;99.90;;;;;;5038823;28;20551;-36
2024/02/29 03:52:28;;;;;;;12.77;8.02;;;7.80;99.90;;;;;;5039046;28;20060;-35
2024/02/29 03:54:53;;;;;;;11.55;7.95;;;7.80;99.90;;;;;;5039141;28;20525;-33
2024/02/29 03:57:19;;;;;;;11.80;8.65;;;7.80;99.90;;;;;;5038897;28;20800;-37
2024/02/29 03:59:47;;;;;;;11.70;7.82;;;7.80;99.90;;;;;;5039346;28;20468;-35
2024/02/29 04:02:13;;;;;;;10.23;6.95;;;7.80;99.90;;;;;;5039609;28;20082;-36
2024/02/29 04:04:39;;;;;;;11.10;7.70;;;7.80;99.90;;;;;;5042181;28;20060;-37
2024/02/29 04:07:05;;;;;;;11.57;8.45;;;7.80;99.90;;;;;;5043227;28;20035;-34
2024/02/29 04:09:31;;;;;;;9.65;7.57;;;7.80;99.90;;;;;;5043227;28;20029;-36
2024/02/29 04:11:56;;;;;;;12.00;7.78;;;7.80;99.90;;;;;;5042017;28;20620;-35
2024/02/29 04:14:22;;;;;;;10.10;7.40;;;7.80;99.90;;;;;;5042288;28;20024;-34
2024/02/29 04:16:47;;;;;;;14.65;8.40;;;7.80;99.90;;;;;;5043219;28;20037;-32
2024/02/29 04:19:16;;;;;;;10.80;8.02;;;7.80;99.90;;;;;;5042364;28;20040;-33
2024/02/29 04:21:46;;;;;;;10.98;7.88;;;7.80;99.90;;;;;;5043171;28;20025;-36
2024/02/29 04:24:11;;;;;;;9.85;8.10;;;7.80;99.90;;;;;;5042966;28;20016;-34
2024/02/29 04:26:37;;;;;;;10.77;7.28;;;7.80;99.90;;;;;;5042445;28;20095;-35
2024/02/29 04:29:02;;;;;;;10.13;7.07;;;7.80;99.90;;;;;;5042982;28;20025;-34
2024/02/29 04:31:28;;;;;;;10.48;7.22;;;7.80;99.90;;;;;;5042464;28;20021;-36
2024/02/29 04:33:56;;;;;;;9.68;7.43;;;7.80;99.90;;;;;;5042479;28;20575;-33
2024/02/29 04:36:22;;;;;;;12.50;8.30;;;7.80;99.90;;;;;;5039003;28;20025;-32
2024/02/29 04:38:49;;;;;;;9.32;6.35;;;7.80;99.90;;;;;;5043090;28;20448;-31
2024/02/29 04:41:15;;;;;;;9.55;6.75;;;7.80;99.90;;;;;;5041643;28;20029;-33
2024/02/29 04:43:40;;;;;;;8.98;6.82;;;7.80;99.90;;;;;;5042672;28;20033;-35
2024/02/29 04:46:06;;;;;;;9.40;6.70;;;7.80;99.90;;;;;;5041427;28;20822;-33
2024/02/29 04:48:32;;;;;;;10.50;6.95;;;7.80;99.90;;;;;;5042159;28;20796;-34
2024/02/29 04:50:58;;;;;;;12.18;7.90;;;7.80;99.90;;;;;;5042561;28;20032;-35
2024/02/29 04:53:23;;;;;;;9.40;6.40;;;7.80;99.90;;;;;;5041784;28;20292;-36
2024/02/29 04:55:49;;;;;;;12.55;7.35;;;7.80;99.90;;;;;;5042487;28;20035;-36
2024/02/29 04:58:14;;;;;;;9.02;7.18;;;7.70;99.90;;;;;;5042686;28;20039;-35
2024/02/29 05:00:40;;;;;;;10.90;7.18;;;7.70;99.90;;;;;;5040918;28;20017;-32
2024/02/29 05:03:05;;;;;;;10.20;7.05;;;7.70;99.90;;;;;;5042130;28;20136;-35
2024/02/29 05:05:31;;;;;;;10.57;7.40;;;7.60;99.90;;;;;;5042101;28;20037;-36
2024/02/29 05:07:57;;;;;;;10.40;7.32;;;7.60;99.90;;;;;;5042076;28;20059;-32
2024/02/29 05:10:23;;;;;;;10.10;7.38;;;7.60;99.90;;;;;;5042117;28;20487;-33
2024/02/29 05:12:53;;;;;;;11.18;6.90;;;7.60;99.90;;;;;;5042417;28;20794;-36
2024/02/29 05:15:23;;;;;;;10.32;7.28;;;7.60;99.90;;;;;;5039802;28;20021;-36
2024/02/29 05:17:49;;;;;;;9.90;6.70;;;7.50;99.90;;;;;;5042481;28;20055;-33
2024/02/29 05:20:15;;;;;;;9.52;6.90;;;7.50;99.90;;;;;;5041840;28;20029;-34
2024/02/29 05:22:41;;;;;;;8.25;6.40;;;7.50;99.90;;;;;;5041179;28;20071;-33
2024/02/29 05:25:09;;;;;;;11.73;8.02;;;7.50;99.90;;;;;;5041813;28;20060;-33
2024/02/29 05:27:36;;;;;;;10.38;7.53;;;7.50;99.90;;;;;;5041042;28;20025;-37
2024/02/29 05:30:02;;;;;;;9.45;7.40;;;7.50;99.90;;;;;;5041120;28;20078;-34
2024/02/29 05:32:28;;;;;;;11.27;7.25;;;7.50;99.90;;;;;;5040676;28;20072;-36
2024/02/29 05:34:53;;;;;;;10.50;7.60;;;7.40;99.90;;;;;;5042069;28;20121;-31
2024/02/29 05:37:19;;;;;;;10.32;8.32;;;7.50;99.90;;;;;;5039201;28;20052;-34
2024/02/29 05:39:45;;;;;;;11.82;8.73;;;7.40;99.90;;;;;;5040118;28;20032;-34
2024/02/29 05:42:10;;;;;;;11.70;8.18;;;7.40;99.90;;;;;;5040612;28;20051;-36
2024/02/29 05:44:36;;;;;;;8.05;6.68;;;7.40;99.90;;;;;;5038952;28;20099;-36
2024/02/29 05:47:02;;;;;;;9.88;7.15;;;7.40;99.90;;;;;;5039699;28;20036;-37
2024/02/29 05:49:30;;;;;;;10.77;7.63;;;7.40;99.90;;;;;;5039188;28;20036;-34
2024/02/29 05:51:56;;;;;;;9.40;6.85;;;7.40;99.90;;;;;;5041038;28;20037;-36
2024/02/29 05:54:21;;;;;;;8.48;6.47;;;7.50;99.90;;;;;;5041821;28;20074;-36
2024/02/29 05:56:47;;;;;;;10.00;7.38;;;7.50;99.90;;;;;;5040897;28;20155;-36
2024/02/29 05:59:12;;;;;;;10.02;6.35;;;7.50;99.90;;;;;;5040666;28;20133;-36
2024/02/29 06:01:39;;;;;;;9.02;6.43;;;7.50;99.90;;;;;;5040797;28;20857;-36
2024/02/29 06:04:08;;;;;;;9.35;6.82;;;7.60;99.90;;;;;;5039715;28;20025;-36
2024/02/29 06:06:34;;;;;;;10.57;7.60;;;7.50;99.90;;;;;;5039890;28;20041;-35
2024/02/29 06:08:59;;;;;;;10.02;6.90;;;7.60;99.90;;;;;;5040991;28;20129;-35
2024/02/29 06:11:28;;;;;;;10.77;7.10;;;7.60;99.90;;;;;;5040603;28;20111;-34
2024/02/29 06:13:53;;;;;;;9.45;6.88;;;7.60;99.90;;;;;;5036637;28;20091;-33
2024/02/29 06:16:19;;;;;;;9.15;6.30;;;7.60;99.90;;;;;;5040753;28;20060;-35
2024/02/29 06:18:49;;;;;;;9.45;6.85;;;7.60;99.90;;;;;;5040440;28;20397;-36
2024/02/29 06:21:15;;;;;;;10.30;6.80;;;7.60;99.90;;;;;;5038701;28;20209;-37
2024/02/29 06:23:40;;;;;;;7.38;6.00;;;7.60;99.90;;;;;;5039810;28;20154;-35
2024/02/29 06:26:06;;;;;;;8.55;5.82;;;7.70;99.90;;;;;;5038604;28;20388;-31
2024/02/29 06:28:31;;;;;;;7.75;6.18;;;7.70;99.90;;;;;;5040166;28;20135;-35
2024/02/29 06:30:57;;;;;;;8.20;5.90;;;7.60;99.90;;;;;;5040318;28;20144;-36
2024/02/29 06:33:24;;;;;;;9.20;6.47;;;7.70;99.90;;;;;;5038588;28;20044;-32
2024/02/29 06:35:50;;;;;;;8.05;6.50;;;7.70;99.90;;;;;;5040388;28;20052;-33
2024/02/29 06:38:16;;;;;;;8.88;6.55;;;7.70;99.90;;;;;;5039602;28;20021;-34
2024/02/29 06:40:42;;;;;;;8.77;5.93;;;7.70;99.90;;;;;;5038797;28;20028;-34
2024/02/29 06:43:08;;;;;;;9.20;6.55;;;7.70;99.90;;;;;;5040286;28;20021;-35
2024/02/29 06:45:33;;;;;;;8.52;6.28;;;7.70;99.90;;;;;;5038629;28;20033;-32
2024/02/29 06:47:59;;;;;;;9.05;6.13;;;7.70;99.90;;;;;;5039545;28;20056;-35
2024/02/29 06:50:24;;;;;;;8.13;5.70;;;7.70;99.90;;;;;;5039010;28;20465;-35
2024/02/29 06:52:50;;;;;;;7.80;5.65;;;7.70;99.90;;;;;;5039403;28;20410;-35
2024/02/29 06:55:16;;;;;;;9.25;6.68;;;7.80;99.90;;;;;;5038419;28;20086;-34
2024/02/29 06:57:42;;;;;;;8.85;6.55;;;7.70;99.90;;;;;;5039244;28;20101;-37
2024/02/29 07:00:08;;;;;;;8.93;6.00;;;7.80;99.90;;;;;;5038625;28;20025;-36
2024/02/29 07:02:34;;;;;;;7.05;5.53;;;7.80;99.90;;;;;;5039123;28;20040;-34
2024/02/29 07:05:00;;;;;;;10.25;6.10;;;7.80;99.90;;;;;;5039306;28;20681;-32
2024/02/29 07:07:26;;;;;;;9.80;6.95;;;7.80;99.90;;;;;;5037274;28;20025;-29
2024/02/29 07:09:56;;;;;;;9.98;6.53;;;7.80;99.90;;;;;;5039063;28;20059;-30
2024/02/29 07:12:22;;;;;;;8.13;5.85;;;7.80;99.90;;;;;;5038972;28;20087;-33
2024/02/29 07:14:48;;;;;;;8.63;6.55;;;7.90;99.90;;;;;;5038779;28;20414;-33
2024/02/29 07:17:13;;;;;;;6.93;5.50;;;7.90;99.90;;;;;;5039176;28;20029;-32
2024/02/29 07:19:39;;;;;;;7.18;5.70;;;7.90;99.90;;;;;;5038831;28;20158;-31
2024/02/29 07:22:05;;;;;;;8.18;5.78;;;7.90;99.90;;;;;;5038173;28;20670;-29
2024/02/29 07:24:31;;;;;;;7.90;5.72;;;8.00;99.90;;;;;;5038239;28;20024;-30
2024/02/29 07:26:57;;;;;;;6.70;5.22;;;8.00;99.90;;;;;;5038983;28;20051;-35
2024/02/29 07:29:23;;;;;;;8.13;6.22;;;8.00;99.90;;;;;;5038354;28;20025;-36
2024/02/29 07:31:49;;;;;;;7.78;5.97;;;8.00;99.90;;;;;;5039065;28;20398;-30
2024/02/29 07:34:16;;;;;;;8.15;6.05;;;8.10;99.90;;;;;;5039799;28;20025;-32
2024/02/29 07:36:42;;;;;;;7.80;5.55;;;8.10;99.90;;;;;;5038921;28;20028;-31
2024/02/29 07:39:11;;;;;;;7.20;5.72;;;8.10;99.90;;;;;;5045562;28;20471;-29
2024/02/29 07:41:37;;;;;;;8.35;5.78;;;8.10;99.90;;;;;;5046114;28;20032;-28
2024/02/29 07:44:03;;;;;;;7.50;5.55;;;8.10;99.90;;;;;;5045066;28;20082;-31
2024/02/29 07:46:28;;;;;;;6.60;4.93;;;8.10;99.90;;;;;;5045108;28;20021;-34
2024/02/29 07:48:54;;;;;;;6.25;4.70;;;8.10;99.90;;;;;;5045223;28;20127;-31
2024/02/29 07:51:19;;;;;;;7.43;5.43;;;8.10;99.90;;;;;;5044733;28;20062;-34
2024/02/29 07:53:45;;;;;;;7.05;5.25;;;8.20;99.90;;;;;;5045577;28;20071;-31
2024/02/29 07:56:10;;;;;;;7.85;5.43;;;8.20;99.90;;;;;;5044936;28;20013;-31
2024/02/29 07:58:36;;;;;;;7.35;5.50;;;8.20;99.90;;;;;;5045639;28;20071;-36
2024/02/29 08:01:02;;;;;;;8.40;5.38;;;8.20;99.90;;;;;;5046185;28;20031;-34
2024/02/29 08:03:28;;;;;;;8.30;6.07;;;8.20;99.90;;;;;;5045120;28;20062;-31
2024/02/29 08:05:55;;;;;;;8.85;6.45;;;8.20;99.90;;;;;;5046323;28;20439;-34
2024/02/29 08:08:21;;;;;;;6.72;5.55;;;8.20;99.90;;;;;;5045628;28;20039;-34
2024/02/29 08:10:46;;;;;;;8.07;5.82;;;8.20;99.90;;;;;;5045852;28;20017;-34
2024/02/29 08:13:12;;;;;;;6.93;5.38;;;8.30;99.90;;;;;;5045526;28;20135;-36
2024/02/29 08:15:38;;;;;;;7.75;5.63;;;8.30;99.90;;;;;;5045696;28;20074;-34
2024/02/29 08:18:03;;;;;;;7.05;5.28;;;8.30;99.90;;;;;;5045348;28;20115;-32
2024/02/29 08:20:29;;;;;;;7.25;5.70;;;8.30;99.90;;;;;;5045786;28;20110;-35
2024/02/29 08:22:56;;;;;;;8.52;5.82;;;8.40;99.90;;;;;;5045924;28;20047;-32
2024/02/29 08:25:26;;;;;;;9.25;6.70;;;8.40;99.90;;;;;;5044627;28;20712;-33
2024/02/29 08:27:54;;;;;;;8.02;5.65;;;8.40;99.90;;;;;;5045959;28;20029;-35
2024/02/29 08:30:20;;;;;;;9.23;6.72;;;8.50;99.90;;;;;;5045225;28;20496;-34
2024/02/29 08:32:48;;;;;;;9.27;6.53;;;8.50;99.90;;;;;;5044854;28;20055;-35
2024/02/29 08:35:15;;;;;;;9.55;6.72;;;8.50;99.90;;;;;;5045632;28;20024;-30
2024/02/29 08:37:43;;;;;;;8.43;6.20;;;8.50;99.90;;;;;;5045420;28;20547;-32
2024/02/29 08:40:08;;;;;;;7.63;5.95;;;8.50;99.90;;;;;;5045136;28;20060;-36
2024/02/29 08:42:34;;;;;;;8.75;6.13;;;8.50;99.90;;;;;;5045938;28;20132;-35
2024/02/29 08:45:00;;;;;;;8.32;6.13;;;8.60;99.90;;;;;;5045536;28;20028;-33
2024/02/29 08:47:25;;;;;;;8.13;5.68;;;8.60;99.90;;;;;;5044624;28;20029;-30
2024/02/29 08:49:53;;;;;;;8.10;6.03;;;8.60;99.90;;;;;;5043545;28;20092;-36
2024/02/29 08:52:18;;;;;;;7.10;5.60;;;8.60;99.90;;;;;;5040978;28;20033;-31
2024/02/29 08:54:44;;;;;;;8.55;6.15;;;8.60;99.90;;;;;;5041644;28;20091;-35
2024/02/29 08:57:10;;;;;;;8.38;6.47;;;8.70;99.90;;;;;;5041099;28;20044;-34
2024/02/29 08:59:35;;;;;;;9.05;7.00;;;8.70;99.90;;;;;;5039875;28;20055;-35
2024/02/29 09:02:01;;;;;;;8.07;5.97;;;8.70;99.90;;;;;;5041636;28;20021;-36
2024/02/29 09:04:29;;;;;;;8.57;6.70;;;8.70;99.90;;;;;;5040173;28;20485;-36
2024/02/29 09:06:55;;;;;;;7.57;5.60;;;8.80;99.90;;;;;;5040949;28;20031;-31
2024/02/29 09:09:20;;;;;;;8.27;5.55;;;8.80;99.90;;;;;;5041279;28;20043;-33
2024/02/29 09:11:46;;;;;;;12.55;7.80;;;8.80;99.90;;;;;;5042032;28;20451;-32
2024/02/29 09:14:12;;;;;;;10.00;6.35;;;8.80;99.90;;;;;;5041017;28;20366;-35
2024/02/29 09:16:37;;;;;;;9.48;6.57;;;8.90;99.90;;;;;;5041630;28;20033;-38
2024/02/29 09:19:03;;;;;;;7.97;6.28;;;8.80;99.90;;;;;;5041608;28;20033;-33
2024/02/29 09:21:28;;;;;;;10.68;6.32;;;8.90;99.90;;;;;;5040364;28;20025;-33
2024/02/29 09:23:54;;;;;;;8.05;6.47;;;8.90;99.90;;;;;;5041294;28;20108;-35
2024/02/29 09:26:19;;;;;;;8.45;6.25;;;8.90;99.90;;;;;;5039060;28;20029;-32
2024/02/29 09:28:46;;;;;;;9.10;5.85;;;8.90;99.90;;;;;;5040583;28;20029;-31
2024/02/29 09:31:12;;;;;;;8.60;6.20;;;9.00;99.90;;;;;;5041487;28;20051;-32
2024/02/29 09:33:38;;;;;;;10.55;6.47;;;9.00;99.90;;;;;;5041591;28;20025;-31
2024/02/29 09:36:09;;;;;;;8.00;5.88;;;9.00;99.90;;;;;;5040923;28;20025;-33
2024/02/29 09:38:35;;;;;;;8.05;5.80;;;9.10;99.90;;;;;;5040878;28;20025;-35
2024/02/29 09:41:01;;;;;;;7.97;6.28;;;9.10;99.90;;;;;;5041057;28;20032;-33
2024/02/29 09:43:27;;;;;;;10.13;6.57;;;9.10;99.90;;;;;;5040483;28;20043;-34
2024/02/29 09:45:55;;;;;;;10.05;6.97;;;9.20;99.90;;;;;;5040991;28;20024;-33
2024/02/29 09:48:22;;;;;;;8.77;6.63;;;9.20;99.90;;;;;;5040322;28;20059;-30
2024/02/29 09:50:47;;;;;;;8.38;6.22;;;9.30;99.90;;;;;;5040613;28;20063;-29
2024/02/29 09:53:19;;;;;;;7.72;5.53;;;9.30;99.90;;;;;;5040234;28;20052;-32
2024/02/29 09:55:45;;;;;;;9.48;6.85;;;9.30;99.90;;;;;;5039902;28;20826;-34
2024/02/29 09:58:16;;;;;;;9.45;6.80;;;9.40;99.90;;;;;;5040268;28;20103;-34
2024/02/29 10:00:45;;;;;;;8.40;6.57;;;9.40;99.90;;;;;;5040225;28;20021;-34
2024/02/29 10:03:12;;;;;;;9.07;6.97;;;9.50;99.90;;;;;;5039428;28;20032;-33
2024/02/29 10:05:39;;;;;;;9.60;6.15;;;9.50;99.90;;;;;;5040151;28;20183;-31
2024/02/29 10:08:05;;;;;;;8.35;6.32;;;9.60;99.90;;;;;;5040662;28;20033;-32
2024/02/29 10:10:30;;;;;;;7.38;5.97;;;9.70;99.90;;;;;;5039966;28;20438;-35
2024/02/29 10:12:56;;;;;;;7.93;5.47;;;9.70;99.90;;;;;;5040871;28;20147;-33
2024/02/29 10:15:28;;;;;;;6.53;4.88;;;9.80;99.90;;;;;;5040163;28;20806;-35
2024/02/29 10:18:03;;;;;;;6.68;5.80;;;9.80;99.90;;;;;;5040116;28;20392;-32
2024/02/29 10:20:29;;;;;;;7.85;5.60;;;9.90;99.90;;;;;;5040692;28;20025;-34
2024/02/29 10:22:54;;;;;;;8.13;5.63;;;9.90;99.90;;;;;;5040446;28;20048;-33
2024/02/29 10:25:21;;;;;;;7.40;5.53;;;9.90;99.90;;;;;;5039685;28;20539;-35
2024/02/29 10:27:47;;;;;;;7.43;5.50;;;10.00;99.90;;;;;;5039988;28;20577;-34
2024/02/29 10:30:15;;;;;;;6.80;4.82;;;9.90;99.90;;;;;;5040336;28;20083;-31
2024/02/29 10:32:42;;;;;;;8.43;5.47;;;10.00;99.90;;;;;;5039679;28;20044;-33
2024/02/29 10:35:21;;;;;;;6.40;4.93;;;10.00;99.90;;;;;;5040948;28;20036;-36
2024/02/29 10:37:55;;;;;;;6.95;5.38;;;10.00;99.90;;;;;;5039809;28;20089;-36
2024/02/29 10:40:22;;;;;;;8.88;6.28;;;10.00;99.90;;;;;;5019829;28;20048;-33
2024/02/29 10:42:55;;;;;;;9.43;6.53;;;10.00;99.90;;;;;;5035184;28;20132;-34
2024/02/29 10:45:25;;;;;;;9.52;6.82;;;10.10;99.90;;;;;;5039309;28;20478;-36
2024/02/29 10:48:15;;;;;;;7.97;6.00;;;10.10;99.90;;;;;;5040307;28;20025;-31
2024/02/29 10:51:10;;;;;;;9.05;5.82;;;10.10;99.90;;;;;;5019773;28;20040;-34
2024/02/29 10:53:48;;;;;;;8.25;6.13;;;10.20;99.90;;;;;;5038143;28;20045;-36
2024/02/29 10:56:27;;;;;;;7.25;5.47;;;10.20;99.90;;;;;;5039923;28;20052;-37
2024/02/29 10:59:04;;;;;;;8.77;6.10;;;10.20;99.90;;;;;;5039181;28;20029;-35
2024/02/29 11:01:35;;;;;;;7.90;6.03;;;10.20;99.90;;;;;;5039381;28;20028;-34
2024/02/29 11:04:01;;;;;;;6.72;5.20;;;10.20;99.90;;;;;;5039331;28;20036;-35
2024/02/29 11:06:36;;;;;;;6.82;5.30;;;10.20;99.90;;;;;;5038521;28;20431;-35
2024/02/29 11:09:03;;;;;;;6.85;5.20;;;10.20;99.90;;;;;;5040555;28;20549;-36
2024/02/29 11:11:29;;;;;;;7.38;5.35;;;10.20;99.90;;;;;;5039777;28;20250;-33
2024/02/29 11:14:04;;;;;;;6.13;4.97;;;10.20;99.90;;;;;;5038713;28;20537;-34
2024/02/29 11:16:45;;;;;;;6.72;5.10;;;10.20;99.90;;;;;;5020680;28;20195;-32
2024/02/29 11:19:18;;;;;;;9.30;5.80;;;10.20;99.90;;;;;;5035961;28;20031;-34
2024/02/29 11:21:44;;;;;;;5.82;5.13;;;10.20;99.90;;;;;;5039273;28;20056;-35
2024/02/29 11:24:20;;;;;;;6.82;5.45;;;10.20;99.90;;;;;;5039099;28;20033;-35
2024/02/29 11:26:48;;;;;;;7.35;5.05;;;10.20;99.90;;;;;;5020300;28;20035;-36
2024/02/29 11:29:20;;;;;;;6.18;5.38;;;10.20;99.90;;;;;;5032960;28;20534;-33
2024/02/29 11:31:55;;;;;;;5.85;4.15;;;10.20;99.90;;;;;;5039540;28;20116;-32
2024/02/29 11:34:24;;;;;;;6.43;4.70;;;10.20;99.90;;;;;;5038155;28;20021;-34
2024/02/29 11:36:51;;;;;;;8.30;5.38;;;10.20;99.90;;;;;;5039499;28;20028;-35
2024/02/29 11:39:20;;;;;;;7.40;5.18;;;10.30;99.90;;;;;;5039486;28;20039;-37
2024/02/29 11:41:47;;;;;;;8.40;5.70;;;10.30;99.90;;;;;;5038960;28;20029;-39
2024/02/29 11:44:13;;;;;;;6.38;5.22;;;10.30;99.90;;;;;;5038775;28;20534;-37
2024/02/29 11:46:49;;;;;;;7.22;5.30;;;10.30;99.90;;;;;;5039291;28;20120;-36
2024/02/29 11:49:15;;;;;;;9.00;4.60;;;10.30;99.90;;;;;;5038316;28;20024;-35
2024/02/29 11:51:44;;;;;;;6.78;4.93;;;10.30;99.90;;;;;;5039037;28;20144;-32
2024/02/29 11:54:14;;;;;;;6.50;4.78;;;10.30;99.90;;;;;;5039354;28;20052;-32
2024/02/29 11:56:40;;;;;;;5.60;4.68;;;10.30;99.90;;;;;;5037955;28;20057;-33
2024/02/29 11:59:09;;;;;;;5.72;4.50;;;10.30;99.90;;;;;;5038236;28;20700;-34
2024/02/29 12:01:35;;;;;;;6.97;4.93;;;10.30;99.90;;;;;;5038666;28;20136;-34
2024/02/29 12:04:04;;;;;;;5.72;4.72;;;10.30;99.90;;;;;;5038415;28;20821;-30
2024/02/29 12:06:31;;;;;;;6.50;4.70;;;10.30;99.90;;;;;;5039192;28;20071;-32
2024/02/29 12:08:56;;;;;;;5.72;4.65;;;10.30;99.90;;;;;;5039296;28;20032;-31
2024/02/29 12:11:23;;;;;;;5.40;4.78;;;10.30;99.90;;;;;;5038183;28;20031;-34
2024/02/29 12:13:51;;;;;;;6.30;4.93;;;10.40;99.90;;;;;;5039457;28;20063;-31
2024/02/29 12:16:17;;;;;;;10.52;5.45;;;10.40;99.90;;;;;;5038230;28;20091;-32
2024/02/29 12:18:45;;;;;;;6.30;4.93;;;10.40;99.90;;;;;;5038938;28;20040;-35
2024/02/29 12:21:11;;;;;;;7.25;5.10;;;10.40;99.90;;;;;;5038451;28;20091;-36
2024/02/29 12:23:39;;;;;;;6.07;4.57;;;10.40;99.90;;;;;;5038569;28;20108;-35
2024/02/29 12:26:21;;;;;;;6.13;4.25;;;10.40;99.90;;;;;;5041955;28;20035;-37
2024/02/29 12:28:50;;;;;;;5.70;4.60;;;10.40;99.90;;;;;;5042372;28;20472;-34
2024/02/29 12:31:16;;;;;;;5.55;4.30;;;10.40;99.90;;;;;;5041906;28;20021;-34
2024/02/29 12:33:44;;;;;;;5.40;4.22;;;10.40;99.90;;;;;;5042097;28;20063;-30
2024/02/29 12:36:12;;;;;;;6.25;4.85;;;10.40;99.90;;;;;;5042339;28;20098;-31
2024/02/29 12:38:39;;;;;;;7.90;5.10;;;10.40;99.90;;;;;;5041612;28;20762;-35
2024/02/29 12:41:06;;;;;;;9.80;5.38;;;10.40;99.90;;;;;;5042388;28;20025;-35
2024/02/29 12:43:32;;;;;;;5.93;4.50;;;10.50;99.90;;;;;;5043010;28;20029;-36
2024/02/29 12:45:58;;;;;;;5.93;5.07;;;10.50;99.90;;;;;;5041987;28;20025;-35
2024/02/29 12:48:24;;;;;;;5.30;4.45;;;10.50;99.90;;;;;;5042032;28;20040;-36
2024/02/29 12:50:50;;;;;;;6.20;5.10;;;10.50;99.90;;;;;;5042435;28;20071;-34